sensor_id;sensor_type;location;lat;lon;timestamp;P1;durP1;ratioP1;P2;durP2;ratioP2
18780;SDS011;9519;51.890;8.970;2023-08-08T00:03:48;26.90;;;14.43;;
18780;SDS011;9519;51.890;8.970;2023-08-08T00:08:50;15.03;;;8.80;;
18780;SDS011;9519;51.890;8.970;2023-08-08T00:13:52;15.13;;;8.87;;
18780;SDS011;9519;51.890;8.970;2023-08-08T00:18:56;12.47;;;7.73;;
18780;SDS011;9519;51.890;8.970;2023-08-08T00:23:58;15.03;;;9.90;;
18780;SDS011;9519;51.890;8.970;2023-08-08T00:29:00;19.97;;;13.13;;
18780;SDS011;9519;51.890;8.970;2023-08-08T00:34:03;15.00;;;10.53;;
18780;SDS011;9519;51.890;8.970;2023-08-08T00:39:05;17.63;;;10.87;;
18780;SDS011;9519;51.890;8.970;2023-08-08T00:44:08;16.40;;;10.50;;
18780;SDS011;9519;51.890;8.970;2023-08-08T00:49:12;17.87;;;10.30;;
18780;SDS011;9519;51.890;8.970;2023-08-08T00:54:14;20.97;;;12.67;;
18780;SDS011;9519;51.890;8.970;2023-08-08T00:59:16;19.27;;;12.43;;
18780;SDS011;9519;51.890;8.970;2023-08-08T01:04:22;18.77;;;12.57;;
18780;SDS011;9519;51.890;8.970;2023-08-08T01:09:29;27.60;;;16.00;;
18780;SDS011;9519;51.890;8.970;2023-08-08T01:14:42;22.17;;;14.07;;
18780;SDS011;9519;51.890;8.970;2023-08-08T01:19:46;20.97;;;11.50;;
18780;SDS011;9519;51.890;8.970;2023-08-08T01:24:50;21.07;;;12.77;;
18780;SDS011;9519;51.890;8.970;2023-08-08T01:29:55;19.63;;;13.50;;
18780;SDS011;9519;51.890;8.970;2023-08-08T01:34:57;15.70;;;9.47;;
18780;SDS011;9519;51.890;8.970;2023-08-08T01:40:01;18.93;;;13.87;;
18780;SDS011;9519;51.890;8.970;2023-08-08T01:45:06;15.33;;;10.93;;
18780;SDS011;9519;51.890;8.970;2023-08-08T01:50:09;13.87;;;9.40;;
18780;SDS011;9519;51.890;8.970;2023-08-08T01:55:13;12.23;;;8.07;;
18780;SDS011;9519;51.890;8.970;2023-08-08T02:00:15;12.67;;;8.33;;
18780;SDS011;9519;51.890;8.970;2023-08-08T02:05:17;13.97;;;9.10;;
18780;SDS011;9519;51.890;8.970;2023-08-08T02:10:21;13.57;;;7.40;;
18780;SDS011;9519;51.890;8.970;2023-08-08T02:15:23;15.33;;;8.53;;
18780;SDS011;9519;51.890;8.970;2023-08-08T02:20:25;13.03;;;8.03;;
18780;SDS011;9519;51.890;8.970;2023-08-08T02:25:28;8.23;;;6.10;;
18780;SDS011;9519;51.890;8.970;2023-08-08T02:30:30;11.10;;;7.60;;
18780;SDS011;9519;51.890;8.970;2023-08-08T02:35:33;12.50;;;8.00;;
18780;SDS011;9519;51.890;8.970;2023-08-08T02:40:36;6.53;;;5.00;;
18780;SDS011;9519;51.890;8.970;2023-08-08T02:45:39;9.47;;;5.87;;
18780;SDS011;9519;51.890;8.970;2023-08-08T02:50:41;9.30;;;6.07;;
18780;SDS011;9519;51.890;8.970;2023-08-08T02:55:44;9.07;;;6.73;;
18780;SDS011;9519;51.890;8.970;2023-08-08T03:00:46;10.37;;;8.17;;
18780;SDS011;9519;51.890;8.970;2023-08-08T03:05:48;6.90;;;4.43;;
18780;SDS011;9519;51.890;8.970;2023-08-08T03:10:51;9.13;;;4.87;;
18780;SDS011;9519;51.890;8.970;2023-08-08T03:15:53;8.10;;;4.27;;
18780;SDS011;9519;51.890;8.970;2023-08-08T03:20:56;7.67;;;4.43;;
18780;SDS011;9519;51.890;8.970;2023-08-08T03:26:00;11.87;;;6.77;;
18780;SDS011;9519;51.890;8.970;2023-08-08T03:31:02;7.47;;;5.20;;
18780;SDS011;9519;51.890;8.970;2023-08-08T03:36:04;10.80;;;6.37;;
18780;SDS011;9519;51.890;8.970;2023-08-08T03:41:07;10.40;;;7.20;;
18780;SDS011;9519;51.890;8.970;2023-08-08T03:46:09;14.53;;;10.47;;
18780;SDS011;9519;51.890;8.970;2023-08-08T03:51:12;15.20;;;11.63;;
18780;SDS011;9519;51.890;8.970;2023-08-08T03:56:15;12.17;;;9.10;;
18780;SDS011;9519;51.890;8.970;2023-08-08T04:01:17;11.90;;;8.53;;
18780;SDS011;9519;51.890;8.970;2023-08-08T04:06:19;13.03;;;9.30;;
18780;SDS011;9519;51.890;8.970;2023-08-08T04:11:23;10.17;;;7.00;;
18780;SDS011;9519;51.890;8.970;2023-08-08T04:16:25;9.67;;;6.93;;
18780;SDS011;9519;51.890;8.970;2023-08-08T04:21:27;9.50;;;6.67;;
18780;SDS011;9519;51.890;8.970;2023-08-08T04:26:33;10.27;;;7.23;;
18780;SDS011;9519;51.890;8.970;2023-08-08T04:31:35;14.67;;;8.10;;
18780;SDS011;9519;51.890;8.970;2023-08-08T04:36:37;12.60;;;7.70;;
18780;SDS011;9519;51.890;8.970;2023-08-08T04:41:41;14.70;;;7.23;;
18780;SDS011;9519;51.890;8.970;2023-08-08T04:46:43;10.17;;;7.03;;
18780;SDS011;9519;51.890;8.970;2023-08-08T04:51:45;18.77;;;12.37;;
18780;SDS011;9519;51.890;8.970;2023-08-08T04:56:48;20.20;;;12.57;;
18780;SDS011;9519;51.890;8.970;2023-08-08T05:01:50;17.07;;;12.20;;
18780;SDS011;9519;51.890;8.970;2023-08-08T05:06:52;23.90;;;16.13;;
18780;SDS011;9519;51.890;8.970;2023-08-08T05:11:56;21.73;;;14.87;;
18780;SDS011;9519;51.890;8.970;2023-08-08T05:16:58;23.57;;;14.27;;
18780;SDS011;9519;51.890;8.970;2023-08-08T05:22:00;15.70;;;10.90;;
18780;SDS011;9519;51.890;8.970;2023-08-08T05:27:04;13.10;;;9.43;;
18780;SDS011;9519;51.890;8.970;2023-08-08T05:32:06;12.70;;;9.73;;
18780;SDS011;9519;51.890;8.970;2023-08-08T05:37:09;16.67;;;9.63;;
18780;SDS011;9519;51.890;8.970;2023-08-08T05:42:12;15.40;;;10.67;;
18780;SDS011;9519;51.890;8.970;2023-08-08T05:47:14;30.77;;;16.40;;
18780;SDS011;9519;51.890;8.970;2023-08-08T05:52:17;22.87;;;12.17;;
18780;SDS011;9519;51.890;8.970;2023-08-08T05:57:20;17.63;;;9.93;;
18780;SDS011;9519;51.890;8.970;2023-08-08T06:02:22;13.77;;;8.83;;
18780;SDS011;9519;51.890;8.970;2023-08-08T06:07:24;17.27;;;10.50;;
18780;SDS011;9519;51.890;8.970;2023-08-08T06:12:28;21.83;;;13.30;;
18780;SDS011;9519;51.890;8.970;2023-08-08T06:17:30;23.03;;;15.00;;
18780;SDS011;9519;51.890;8.970;2023-08-08T06:22:32;13.07;;;9.90;;
18780;SDS011;9519;51.890;8.970;2023-08-08T06:27:35;14.67;;;10.37;;
18780;SDS011;9519;51.890;8.970;2023-08-08T06:32:37;12.10;;;8.17;;
18780;SDS011;9519;51.890;8.970;2023-08-08T06:37:39;19.73;;;12.13;;
18780;SDS011;9519;51.890;8.970;2023-08-08T06:42:43;16.87;;;8.70;;
18780;SDS011;9519;51.890;8.970;2023-08-08T06:47:45;13.40;;;8.50;;
18780;SDS011;9519;51.890;8.970;2023-08-08T06:52:47;19.87;;;11.77;;
18780;SDS011;9519;51.890;8.970;2023-08-08T06:57:50;15.77;;;10.00;;
18780;SDS011;9519;51.890;8.970;2023-08-08T07:02:52;15.40;;;11.07;;
18780;SDS011;9519;51.890;8.970;2023-08-08T07:07:55;16.77;;;11.70;;
18780;SDS011;9519;51.890;8.970;2023-08-08T07:12:58;19.03;;;12.30;;
18780;SDS011;9519;51.890;8.970;2023-08-08T07:18:00;24.03;;;13.10;;
18780;SDS011;9519;51.890;8.970;2023-08-08T07:23:02;20.27;;;12.07;;
18780;SDS011;9519;51.890;8.970;2023-08-08T07:28:06;19.40;;;12.63;;
18780;SDS011;9519;51.890;8.970;2023-08-08T07:33:08;21.17;;;12.87;;
18780;SDS011;9519;51.890;8.970;2023-08-08T07:38:11;14.77;;;11.10;;
18780;SDS011;9519;51.890;8.970;2023-08-08T07:43:14;21.37;;;13.70;;
18780;SDS011;9519;51.890;8.970;2023-08-08T07:48:16;18.27;;;11.80;;
18780;SDS011;9519;51.890;8.970;2023-08-08T07:53:18;18.43;;;11.33;;
18780;SDS011;9519;51.890;8.970;2023-08-08T07:58:22;15.33;;;12.00;;
18780;SDS011;9519;51.890;8.970;2023-08-08T08:03:27;16.23;;;10.70;;
18780;SDS011;9519;51.890;8.970;2023-08-08T08:08:29;23.47;;;16.43;;
18780;SDS011;9519;51.890;8.970;2023-08-08T08:13:32;17.57;;;11.90;;
18780;SDS011;9519;51.890;8.970;2023-08-08T08:18:35;17.27;;;11.07;;
18780;SDS011;9519;51.890;8.970;2023-08-08T08:23:37;16.13;;;10.97;;
18780;SDS011;9519;51.890;8.970;2023-08-08T08:28:41;17.73;;;10.30;;
18780;SDS011;9519;51.890;8.970;2023-08-08T08:33:43;15.55;;;10.45;;
18780;SDS011;9519;51.890;8.970;2023-08-08T08:38:45;22.63;;;11.73;;
18780;SDS011;9519;51.890;8.970;2023-08-08T08:43:49;15.13;;;10.33;;
18780;SDS011;9519;51.890;8.970;2023-08-08T08:48:51;16.13;;;9.80;;
18780;SDS011;9519;51.890;8.970;2023-08-08T08:53:56;15.30;;;11.03;;
18780;SDS011;9519;51.890;8.970;2023-08-08T08:59:01;17.97;;;12.40;;
18780;SDS011;9519;51.890;8.970;2023-08-08T09:04:04;16.20;;;10.30;;
18780;SDS011;9519;51.890;8.970;2023-08-08T09:09:09;13.37;;;9.10;;
18780;SDS011;9519;51.890;8.970;2023-08-08T09:14:16;13.17;;;8.73;;
18780;SDS011;9519;51.890;8.970;2023-08-08T09:19:20;15.20;;;9.53;;
18780;SDS011;9519;51.890;8.970;2023-08-08T09:24:23;14.80;;;8.73;;
18780;SDS011;9519;51.890;8.970;2023-08-08T09:29:26;13.70;;;8.27;;
18780;SDS011;9519;51.890;8.970;2023-08-08T09:34:29;14.17;;;7.70;;
18780;SDS011;9519;51.890;8.970;2023-08-08T09:39:31;11.27;;;7.60;;
18780;SDS011;9519;51.890;8.970;2023-08-08T09:44:34;15.73;;;8.20;;
18780;SDS011;9519;51.890;8.970;2023-08-08T09:49:37;12.68;;;6.80;;
18780;SDS011;9519;51.890;8.970;2023-08-08T09:54:40;8.80;;;4.17;;
18780;SDS011;9519;51.890;8.970;2023-08-08T09:59:45;8.07;;;4.63;;
18780;SDS011;9519;51.890;8.970;2023-08-08T10:04:49;6.93;;;4.40;;
18780;SDS011;9519;51.890;8.970;2023-08-08T10:09:53;8.70;;;5.80;;
18780;SDS011;9519;51.890;8.970;2023-08-08T10:14:56;10.20;;;7.77;;
18780;SDS011;9519;51.890;8.970;2023-08-08T10:19:58;12.23;;;8.83;;
18780;SDS011;9519;51.890;8.970;2023-08-08T10:25:09;18.77;;;11.10;;
18780;SDS011;9519;51.890;8.970;2023-08-08T10:30:21;15.20;;;11.23;;
18780;SDS011;9519;51.890;8.970;2023-08-08T10:35:23;13.73;;;10.20;;
18780;SDS011;9519;51.890;8.970;2023-08-08T10:40:42;17.07;;;9.03;;
18780;SDS011;9519;51.890;8.970;2023-08-08T10:45:46;15.32;;;8.10;;
18780;SDS011;9519;51.890;8.970;2023-08-08T10:50:48;11.55;;;6.60;;
18780;SDS011;9519;51.890;8.970;2023-08-08T10:55:56;11.23;;;6.07;;
18780;SDS011;9519;51.890;8.970;2023-08-08T11:01:02;11.20;;;4.53;;
18780;SDS011;9519;51.890;8.970;2023-08-08T11:06:07;8.60;;;4.00;;
18780;SDS011;9519;51.890;8.970;2023-08-08T11:11:11;10.10;;;3.90;;
18780;SDS011;9519;51.890;8.970;2023-08-08T11:16:15;8.68;;;3.65;;
18780;SDS011;9519;51.890;8.970;2023-08-08T11:21:19;7.20;;;3.45;;
18780;SDS011;9519;51.890;8.970;2023-08-08T11:26:24;11.50;;;4.68;;
18780;SDS011;9519;51.890;8.970;2023-08-08T11:31:29;10.13;;;3.50;;
18780;SDS011;9519;51.890;8.970;2023-08-08T11:36:31;9.00;;;3.47;;
18780;SDS011;9519;51.890;8.970;2023-08-08T11:41:36;6.05;;;2.55;;
18780;SDS011;9519;51.890;8.970;2023-08-08T11:46:45;7.85;;;2.80;;
18780;SDS011;9519;51.890;8.970;2023-08-08T11:51:48;5.20;;;2.03;;
18780;SDS011;9519;51.890;8.970;2023-08-08T11:56:50;6.78;;;2.10;;
18780;SDS011;9519;51.890;8.970;2023-08-08T12:01:54;7.18;;;2.85;;
18780;SDS011;9519;51.890;8.970;2023-08-08T12:07:01;6.03;;;1.65;;
18780;SDS011;9519;51.890;8.970;2023-08-08T12:12:03;5.85;;;1.63;;
18780;SDS011;9519;51.890;8.970;2023-08-08T12:17:07;5.55;;;1.60;;
18780;SDS011;9519;51.890;8.970;2023-08-08T12:22:10;4.25;;;1.48;;
18780;SDS011;9519;51.890;8.970;2023-08-08T12:27:13;4.28;;;1.33;;
18780;SDS011;9519;51.890;8.970;2023-08-08T12:32:17;6.22;;;1.45;;
18780;SDS011;9519;51.890;8.970;2023-08-08T12:37:23;3.65;;;1.13;;
18780;SDS011;9519;51.890;8.970;2023-08-08T12:42:25;4.38;;;1.30;;
18780;SDS011;9519;51.890;8.970;2023-08-08T12:47:29;5.82;;;1.45;;
18780;SDS011;9519;51.890;8.970;2023-08-08T12:52:31;6.85;;;2.22;;
18780;SDS011;9519;51.890;8.970;2023-08-08T12:57:34;5.10;;;1.80;;
18780;SDS011;9519;51.890;8.970;2023-08-08T13:02:38;6.07;;;2.10;;
18780;SDS011;9519;51.890;8.970;2023-08-08T13:07:40;6.10;;;2.00;;
18780;SDS011;9519;51.890;8.970;2023-08-08T13:12:42;6.32;;;2.28;;
18780;SDS011;9519;51.890;8.970;2023-08-08T13:17:45;6.00;;;2.00;;
18780;SDS011;9519;51.890;8.970;2023-08-08T13:22:47;5.15;;;1.70;;
18780;SDS011;9519;51.890;8.970;2023-08-08T13:27:49;6.63;;;2.53;;
18780;SDS011;9519;51.890;8.970;2023-08-08T13:32:53;10.00;;;2.70;;
18780;SDS011;9519;51.890;8.970;2023-08-08T13:37:55;7.63;;;2.60;;
18780;SDS011;9519;51.890;8.970;2023-08-08T13:42:57;6.38;;;2.42;;
18780;SDS011;9519;51.890;8.970;2023-08-08T13:48:00;7.22;;;2.38;;
18780;SDS011;9519;51.890;8.970;2023-08-08T13:53:03;4.63;;;1.80;;
18780;SDS011;9519;51.890;8.970;2023-08-08T13:58:05;6.03;;;1.92;;
18780;SDS011;9519;51.890;8.970;2023-08-08T14:03:09;6.60;;;2.47;;
18780;SDS011;9519;51.890;8.970;2023-08-08T14:08:11;8.07;;;2.13;;
18780;SDS011;9519;51.890;8.970;2023-08-08T14:13:13;8.20;;;2.83;;
18780;SDS011;9519;51.890;8.970;2023-08-08T14:18:17;7.20;;;3.67;;
18780;SDS011;9519;51.890;8.970;2023-08-08T14:23:19;8.18;;;2.45;;
18780;SDS011;9519;51.890;8.970;2023-08-08T14:28:22;8.93;;;2.60;;
18780;SDS011;9519;51.890;8.970;2023-08-08T14:33:26;7.47;;;1.65;;
18780;SDS011;9519;51.890;8.970;2023-08-08T14:38:33;4.53;;;1.08;;
18780;SDS011;9519;51.890;8.970;2023-08-08T14:43:36;4.63;;;1.40;;
18780;SDS011;9519;51.890;8.970;2023-08-08T14:48:40;5.25;;;1.20;;
18780;SDS011;9519;51.890;8.970;2023-08-08T14:53:42;2.58;;;1.00;;
18780;SDS011;9519;51.890;8.970;2023-08-08T14:58:44;4.93;;;1.30;;
18780;SDS011;9519;51.890;8.970;2023-08-08T15:03:47;5.50;;;1.38;;
18780;SDS011;9519;51.890;8.970;2023-08-08T15:08:50;4.80;;;1.33;;
18780;SDS011;9519;51.890;8.970;2023-08-08T15:13:52;4.65;;;1.15;;
18780;SDS011;9519;51.890;8.970;2023-08-08T15:18:56;4.50;;;1.20;;
18780;SDS011;9519;51.890;8.970;2023-08-08T15:23:58;6.40;;;1.17;;
18780;SDS011;9519;51.890;8.970;2023-08-08T15:29:00;2.95;;;1.05;;
18780;SDS011;9519;51.890;8.970;2023-08-08T15:34:04;3.67;;;1.00;;
18780;SDS011;9519;51.890;8.970;2023-08-08T15:39:07;4.47;;;1.17;;
18780;SDS011;9519;51.890;8.970;2023-08-08T15:44:09;4.85;;;0.95;;
18780;SDS011;9519;51.890;8.970;2023-08-08T15:49:13;3.13;;;0.90;;
18780;SDS011;9519;51.890;8.970;2023-08-08T15:54:16;5.75;;;1.00;;
18780;SDS011;9519;51.890;8.970;2023-08-08T15:59:18;3.78;;;1.10;;
18780;SDS011;9519;51.890;8.970;2023-08-08T16:04:22;2.70;;;1.10;;
18780;SDS011;9519;51.890;8.970;2023-08-08T16:09:24;4.00;;;1.13;;
18780;SDS011;9519;51.890;8.970;2023-08-08T16:14:26;5.05;;;1.25;;
18780;SDS011;9519;51.890;8.970;2023-08-08T16:19:30;6.43;;;1.20;;
18780;SDS011;9519;51.890;8.970;2023-08-08T16:24:32;2.60;;;1.08;;
18780;SDS011;9519;51.890;8.970;2023-08-08T16:29:34;3.75;;;1.20;;
18780;SDS011;9519;51.890;8.970;2023-08-08T16:34:37;2.38;;;1.10;;
18780;SDS011;9519;51.890;8.970;2023-08-08T16:39:39;4.13;;;1.50;;
18780;SDS011;9519;51.890;8.970;2023-08-08T16:44:41;3.95;;;1.40;;
18780;SDS011;9519;51.890;8.970;2023-08-08T16:49:45;3.65;;;1.30;;
18780;SDS011;9519;51.890;8.970;2023-08-08T16:54:47;4.20;;;1.13;;
18780;SDS011;9519;51.890;8.970;2023-08-08T16:59:49;2.63;;;0.88;;
18780;SDS011;9519;51.890;8.970;2023-08-08T17:04:52;6.60;;;1.45;;
18780;SDS011;9519;51.890;8.970;2023-08-08T17:09:54;4.13;;;1.20;;
18780;SDS011;9519;51.890;8.970;2023-08-08T17:14:58;3.00;;;1.30;;
18780;SDS011;9519;51.890;8.970;2023-08-08T17:20:01;3.92;;;1.42;;
18780;SDS011;9519;51.890;8.970;2023-08-08T17:25:05;3.70;;;1.10;;
18780;SDS011;9519;51.890;8.970;2023-08-08T17:30:08;5.82;;;1.40;;
18780;SDS011;9519;51.890;8.970;2023-08-08T17:35:13;4.95;;;1.60;;
18780;SDS011;9519;51.890;8.970;2023-08-08T17:40:15;3.70;;;1.48;;
18780;SDS011;9519;51.890;8.970;2023-08-08T17:45:17;3.88;;;1.33;;
18780;SDS011;9519;51.890;8.970;2023-08-08T17:50:21;4.80;;;1.48;;
18780;SDS011;9519;51.890;8.970;2023-08-08T17:55:24;6.50;;;1.63;;
18780;SDS011;9519;51.890;8.970;2023-08-08T18:00:26;4.90;;;1.00;;
18780;SDS011;9519;51.890;8.970;2023-08-08T18:05:29;2.50;;;0.98;;
18780;SDS011;9519;51.890;8.970;2023-08-08T18:10:31;2.00;;;0.80;;
18780;SDS011;9519;51.890;8.970;2023-08-08T18:15:35;2.67;;;1.15;;
18780;SDS011;9519;51.890;8.970;2023-08-08T18:20:39;2.58;;;1.00;;
18780;SDS011;9519;51.890;8.970;2023-08-08T18:25:42;2.28;;;0.93;;
18780;SDS011;9519;51.890;8.970;2023-08-08T18:30:44;4.07;;;0.95;;
18780;SDS011;9519;51.890;8.970;2023-08-08T18:35:47;2.65;;;1.00;;
18780;SDS011;9519;51.890;8.970;2023-08-08T18:40:49;2.45;;;0.95;;
18780;SDS011;9519;51.890;8.970;2023-08-08T18:45:52;6.50;;;1.50;;
18780;SDS011;9519;51.890;8.970;2023-08-08T18:50:55;2.03;;;1.00;;
18780;SDS011;9519;51.890;8.970;2023-08-08T18:55:59;3.45;;;1.33;;
18780;SDS011;9519;51.890;8.970;2023-08-08T19:01:04;2.92;;;1.20;;
18780;SDS011;9519;51.890;8.970;2023-08-08T19:06:07;2.10;;;1.00;;
18780;SDS011;9519;51.890;8.970;2023-08-08T19:11:10;5.63;;;1.65;;
18780;SDS011;9519;51.890;8.970;2023-08-08T19:16:12;4.43;;;1.20;;
18780;SDS011;9519;51.890;8.970;2023-08-08T19:21:15;1.88;;;1.25;;
18780;SDS011;9519;51.890;8.970;2023-08-08T19:26:17;3.00;;;1.25;;
18780;SDS011;9519;51.890;8.970;2023-08-08T19:31:20;3.75;;;1.15;;
18780;SDS011;9519;51.890;8.970;2023-08-08T19:36:23;4.80;;;1.58;;
18780;SDS011;9519;51.890;8.970;2023-08-08T19:41:26;3.70;;;1.20;;
18780;SDS011;9519;51.890;8.970;2023-08-08T19:46:29;4.90;;;1.63;;
18780;SDS011;9519;51.890;8.970;2023-08-08T19:51:32;3.25;;;1.33;;
18780;SDS011;9519;51.890;8.970;2023-08-08T19:56:34;4.17;;;1.20;;
18780;SDS011;9519;51.890;8.970;2023-08-08T20:01:37;2.67;;;1.47;;
18780;SDS011;9519;51.890;8.970;2023-08-08T20:06:40;3.50;;;1.40;;
18780;SDS011;9519;51.890;8.970;2023-08-08T20:11:42;4.20;;;1.40;;
18780;SDS011;9519;51.890;8.970;2023-08-08T20:16:44;3.35;;;1.20;;
18780;SDS011;9519;51.890;8.970;2023-08-08T20:21:48;4.07;;;1.30;;
18780;SDS011;9519;51.890;8.970;2023-08-08T20:26:50;4.03;;;1.13;;
18780;SDS011;9519;51.890;8.970;2023-08-08T20:31:52;6.90;;;1.50;;
18780;SDS011;9519;51.890;8.970;2023-08-08T20:36:55;3.40;;;1.10;;
18780;SDS011;9519;51.890;8.970;2023-08-08T20:41:58;3.20;;;1.40;;
18780;SDS011;9519;51.890;8.970;2023-08-08T20:47:01;2.90;;;1.30;;
18780;SDS011;9519;51.890;8.970;2023-08-08T20:52:05;7.20;;;1.93;;
18780;SDS011;9519;51.890;8.970;2023-08-08T20:57:07;3.83;;;1.30;;
18780;SDS011;9519;51.890;8.970;2023-08-08T21:02:10;5.20;;;1.83;;
18780;SDS011;9519;51.890;8.970;2023-08-08T21:07:13;5.63;;;1.80;;
18780;SDS011;9519;51.890;8.970;2023-08-08T21:12:15;4.73;;;1.40;;
18780;SDS011;9519;51.890;8.970;2023-08-08T21:17:17;5.07;;;1.77;;
18780;SDS011;9519;51.890;8.970;2023-08-08T21:22:23;2.93;;;1.57;;
18780;SDS011;9519;51.890;8.970;2023-08-08T21:27:25;3.25;;;1.50;;
18780;SDS011;9519;51.890;8.970;2023-08-08T21:32:27;3.97;;;1.50;;
18780;SDS011;9519;51.890;8.970;2023-08-08T21:37:31;3.63;;;1.70;;
18780;SDS011;9519;51.890;8.970;2023-08-08T21:42:33;4.87;;;1.60;;
18780;SDS011;9519;51.890;8.970;2023-08-08T21:47:35;5.80;;;2.10;;
18780;SDS011;9519;51.890;8.970;2023-08-08T21:52:39;5.10;;;1.90;;
18780;SDS011;9519;51.890;8.970;2023-08-08T21:57:41;5.53;;;1.73;;
18780;SDS011;9519;51.890;8.970;2023-08-08T22:02:43;4.90;;;2.20;;
18780;SDS011;9519;51.890;8.970;2023-08-08T22:07:49;3.87;;;1.80;;
18780;SDS011;9519;51.890;8.970;2023-08-08T22:12:51;5.53;;;2.00;;
18780;SDS011;9519;51.890;8.970;2023-08-08T22:17:54;5.23;;;2.20;;
18780;SDS011;9519;51.890;8.970;2023-08-08T22:23:05;6.77;;;2.33;;
18780;SDS011;9519;51.890;8.970;2023-08-08T22:28:08;6.00;;;2.80;;
18780;SDS011;9519;51.890;8.970;2023-08-08T22:33:11;6.57;;;2.30;;
18780;SDS011;9519;51.890;8.970;2023-08-08T22:38:14;4.73;;;2.30;;
18780;SDS011;9519;51.890;8.970;2023-08-08T22:43:17;5.33;;;2.37;;
18780;SDS011;9519;51.890;8.970;2023-08-08T22:48:19;5.93;;;2.27;;
18780;SDS011;9519;51.890;8.970;2023-08-08T22:53:23;6.90;;;2.23;;
18780;SDS011;9519;51.890;8.970;2023-08-08T22:58:25;7.77;;;2.40;;
18780;SDS011;9519;51.890;8.970;2023-08-08T23:03:27;5.37;;;2.40;;
18780;SDS011;9519;51.890;8.970;2023-08-08T23:08:30;4.93;;;2.47;;
18780;SDS011;9519;51.890;8.970;2023-08-08T23:13:33;6.67;;;2.47;;
18780;SDS011;9519;51.890;8.970;2023-08-08T23:18:35;5.47;;;2.57;;
18780;SDS011;9519;51.890;8.970;2023-08-08T23:23:39;6.63;;;2.80;;
18780;SDS011;9519;51.890;8.970;2023-08-08T23:28:41;7.53;;;3.50;;
18780;SDS011;9519;51.890;8.970;2023-08-08T23:33:43;7.70;;;3.43;;
18780;SDS011;9519;51.890;8.970;2023-08-08T23:38:47;7.27;;;3.03;;
18780;SDS011;9519;51.890;8.970;2023-08-08T23:43:49;6.63;;;3.17;;
18780;SDS011;9519;51.890;8.970;2023-08-08T23:48:51;9.77;;;3.60;;
18780;SDS011;9519;51.890;8.970;2023-08-08T23:53:55;6.17;;;3.50;;
18780;SDS011;9519;51.890;8.970;2023-08-08T23:58:57;7.47;;;3.60;;
